Terminal Aerodrome Forecast
Issued by NWS

Home | Current Version | Previous Version | Text Only | Print | Product List | Glossary On
Versions: 1 2 3 4 5 6 7 8 9 10 11 12 13 14 15 16 17 18 19 20 21 22 23 24 25 26 27 28 29 30 31 32 33 34 35 36 37 38 39 40 41 42 43 44 45 46 47 48 49
000
FTUS45 KBOU 300604 AAA
TAFAPA
TAF AMD
KAPA 300604Z 3006/3106 06006KT P6SM SCT015 OVC030
     FM300700 14005KT P6SM BKN030 BKN040
     FM301000 16004KT P6SM VCFG BKN030
     FM301300 16004KT P6SM SCT040
     FM302000 15009KT P6SM SCT050
     FM310100 17008KT P6SM SCT050 SCT120=

USA.gov is the U.S. government's official web portal to all federal, state and local government web resources and services.